createdAt,value
2019-01-31T00:00:30.124Z,-0.45
2019-01-31T00:03:11.975Z,-0.43
2019-01-31T00:06:06.504Z,-0.46
2019-01-31T00:08:46.217Z,-0.46
2019-01-31T00:11:26.341Z,-0.43
2019-01-31T00:14:02.497Z,-0.41
2019-01-31T00:16:50.120Z,-0.42
2019-01-31T00:19:26.132Z,-0.48
2019-01-31T00:22:07.452Z,-0.59
2019-01-31T00:24:42.927Z,-0.67
2019-01-31T00:27:24.769Z,-0.68
2019-01-31T00:30:00.251Z,-0.70
2019-01-31T00:32:46.359Z,-0.70
2019-01-31T00:35:57.233Z,-0.78
2019-01-31T00:38:35.410Z,-0.83
2019-01-31T00:41:31.167Z,-0.82
2019-01-31T00:44:32.030Z,-0.82
2019-01-31T00:47:16.765Z,-0.93
2019-01-31T00:50:10.351Z,-0.94
2019-01-31T00:52:48.938Z,-0.96
2019-01-31T00:55:27.324Z,-0.99
2019-01-31T00:58:21.398Z,-1.04
2019-01-31T01:01:03.903Z,-1.15
2019-01-31T01:03:59.705Z,-1.13
2019-01-31T01:06:37.781Z,-1.09
2019-01-31T01:09:37.884Z,-1.07
2019-01-31T01:12:19.224Z,-1.02
2019-01-31T01:15:20.539Z,-1.00
2019-01-31T01:18:01.382Z,-0.99
2019-01-31T01:20:57.674Z,-1.00
2019-01-31T01:23:36.404Z,-1.01
2019-01-31T01:26:28.215Z,-1.04
2019-01-31T01:29:11.392Z,-1.08
2019-01-31T01:31:53.169Z,-1.13
2019-01-31T01:35:01.447Z,-1.13
2019-01-31T01:37:44.080Z,-1.11
2019-01-31T01:40:31.885Z,-1.07
2019-01-31T01:43:13.545Z,-1.09
2019-01-31T01:46:00.890Z,-1.09
2019-01-31T01:48:46.405Z,-1.12
2019-01-31T01:51:24.695Z,-1.18
2019-01-31T01:54:30.870Z,-1.18
2019-01-31T01:57:30.677Z,-1.19
2019-01-31T02:00:06.244Z,-1.20
2019-01-31T02:03:00.883Z,-1.18
2019-01-31T02:05:52.848Z,-1.16
2019-01-31T02:08:53.627Z,-1.22
2019-01-31T02:11:41.238Z,-1.25
2019-01-31T02:14:33.230Z,-1.22
2019-01-31T02:17:11.891Z,-1.24
2019-01-31T02:19:52.746Z,-1.28
2019-01-31T02:22:33.890Z,-1.32
2019-01-31T02:25:16.514Z,-1.34
2019-01-31T02:28:04.033Z,-1.36
2019-01-31T02:30:45.033Z,-1.35
2019-01-31T02:33:32.361Z,-1.39
2019-01-31T02:36:19.747Z,-1.37
2019-01-31T02:39:18.969Z,-1.33
2019-01-31T02:42:00.500Z,-1.35
2019-01-31T02:45:04.556Z,-1.31
2019-01-31T02:47:49.130Z,-1.26
2019-01-31T02:50:30.610Z,-1.28
2019-01-31T02:53:16.540Z,-1.33
2019-01-31T02:56:13.391Z,-1.36
2019-01-31T02:59:02.488Z,-1.40
2019-01-31T03:02:05.773Z,-1.43
2019-01-31T03:04:43.963Z,-1.49
2019-01-31T03:07:36.078Z,-1.49
2019-01-31T03:10:34.030Z,-1.49
2019-01-31T03:13:15.008Z,-1.58
2019-01-31T03:16:16.081Z,-1.62
2019-01-31T03:18:54.118Z,-1.62
2019-01-31T03:21:57.626Z,-1.67
2019-01-31T03:24:35.872Z,-1.71
2019-01-31T03:27:23.477Z,-1.74
2019-01-31T03:30:28.940Z,-1.83
2019-01-31T03:33:09.983Z,-1.90
2019-01-31T03:35:51.343Z,-1.92
2019-01-31T03:38:31.908Z,-1.95
2019-01-31T03:41:10.118Z,-2.01
2019-01-31T03:43:54.345Z,-2.05
2019-01-31T03:46:50.102Z,-2.12
2019-01-31T03:49:46.410Z,-2.10
2019-01-31T03:52:49.065Z,-2.12
2019-01-31T03:55:36.606Z,-2.06
2019-01-31T03:58:23.465Z,-2.04
2019-01-31T04:01:11.009Z,-2.05
2019-01-31T04:03:50.673Z,-2.26
2019-01-31T04:06:26.964Z,-2.32
2019-01-31T04:08:59.405Z,-2.32
2019-01-31T04:11:29.149Z,-2.28
2019-01-31T04:14:01.523Z,-2.27
2019-01-31T04:16:31.282Z,-2.21
2019-01-31T04:19:01.002Z,-2.13
2019-01-31T04:21:30.926Z,-2.10
2019-01-31T04:24:00.837Z,-2.10
2019-01-31T04:26:31.058Z,-2.16
2019-01-31T04:29:00.853Z,-2.18
2019-01-31T04:31:33.230Z,-2.12
2019-01-31T04:34:05.725Z,-2.20
2019-01-31T04:36:38.632Z,-2.18
2019-01-31T04:39:09.563Z,-2.07
2019-01-31T04:41:42.026Z,-1.98
2019-01-31T04:44:11.986Z,-2.20
2019-01-31T04:46:44.421Z,-2.12
2019-01-31T04:49:14.208Z,-2.07
2019-01-31T04:51:43.982Z,-2.01
2019-01-31T04:54:13.804Z,-2.07
2019-01-31T04:56:46.319Z,-2.05
2019-01-31T04:59:16.134Z,-2.13
2019-01-31T05:01:46.019Z,-2.08
2019-01-31T05:04:15.951Z,-2.12
2019-01-31T05:06:45.757Z,-2.24
2019-01-31T05:09:15.551Z,-2.19
2019-01-31T05:11:45.466Z,-2.20
2019-01-31T05:14:15.637Z,-2.12
2019-01-31T05:16:45.607Z,-2.09
2019-01-31T05:19:15.664Z,-2.11
2019-01-31T05:21:45.520Z,-2.08
2019-01-31T05:24:15.277Z,-2.10
2019-01-31T05:26:45.089Z,-2.15
2019-01-31T05:29:14.909Z,-2.16
2019-01-31T05:31:44.839Z,-2.15
2019-01-31T05:34:14.629Z,-2.07
2019-01-31T05:36:44.524Z,-1.98
2019-01-31T05:39:14.350Z,-1.97
2019-01-31T05:41:44.243Z,-1.97
2019-01-31T05:44:14.218Z,-1.95
2019-01-31T05:46:44.027Z,-2.10
2019-01-31T05:49:16.506Z,-1.08
2019-01-31T05:51:46.322Z,-0.04
2019-01-31T05:54:16.089Z,0.39
2019-01-31T05:56:45.862Z,0.91
2019-01-31T05:59:15.655Z,1.42
2019-01-31T06:01:45.384Z,0.29
2019-01-31T06:04:15.214Z,0.29
2019-01-31T06:06:44.986Z,-0.39
2019-01-31T06:09:14.765Z,-0.92
2019-01-31T06:11:44.547Z,-0.92
2019-01-31T06:14:14.333Z,-1.37
2019-01-31T06:16:44.153Z,-1.37
2019-01-31T06:19:13.952Z,-1.48
2019-01-31T06:21:43.738Z,-1.50
2019-01-31T06:24:13.448Z,-1.50
2019-01-31T06:26:43.179Z,-1.58
2019-01-31T06:29:13.521Z,-1.60
2019-01-31T06:31:43.272Z,-1.65
2019-01-31T06:34:13.107Z,-1.74
2019-01-31T06:36:42.894Z,-1.74
2019-01-31T06:39:12.580Z,-1.72
2019-01-31T06:41:42.385Z,-1.71
2019-01-31T06:44:12.263Z,-1.75
2019-01-31T06:46:41.885Z,-1.83
2019-01-31T06:49:11.704Z,-1.80
2019-01-31T06:51:41.490Z,-1.80
2019-01-31T06:54:11.301Z,-1.78
2019-01-31T06:56:40.989Z,-1.70
2019-01-31T06:59:10.695Z,-1.82
2019-01-31T07:01:40.546Z,-1.80
2019-01-31T07:04:11.124Z,-1.39
2019-01-31T07:06:41.065Z,-1.17
2019-01-31T07:09:10.891Z,-1.36
2019-01-31T07:11:40.983Z,-1.47
2019-01-31T07:14:10.673Z,-1.55
2019-01-31T07:16:40.384Z,-1.55
2019-01-31T07:19:10.065Z,-1.53
2019-01-31T07:21:39.853Z,-1.58
2019-01-31T07:24:09.550Z,-1.61
2019-01-31T07:26:41.448Z,-1.62
2019-01-31T07:29:12.291Z,-1.61
2019-01-31T07:31:42.042Z,-1.57
2019-01-31T07:34:11.888Z,-1.50
2019-01-31T07:36:41.563Z,-1.43
2019-01-31T07:39:11.262Z,-1.40
2019-01-31T07:41:41.791Z,-1.40
2019-01-31T07:44:11.719Z,-1.32
2019-01-31T07:46:41.521Z,-1.29
2019-01-31T07:49:11.219Z,-1.23
2019-01-31T07:51:42.653Z,-1.25
2019-01-31T07:54:12.430Z,-1.23
2019-01-31T07:56:42.231Z,-1.24
2019-01-31T07:59:12.097Z,-1.16
2019-01-31T08:01:41.897Z,-1.12
2019-01-31T08:04:11.700Z,-1.15
2019-01-31T08:06:41.546Z,-1.04
2019-01-31T08:09:11.272Z,-1.06
2019-01-31T08:11:52.127Z,-1.02
2019-01-31T08:14:12.545Z,-1.01
2019-01-31T08:16:42.326Z,-0.97
2019-01-31T08:19:12.346Z,-0.92
2019-01-31T08:21:42.124Z,-0.98
2019-01-31T08:24:11.990Z,-0.98
2019-01-31T08:26:41.815Z,-0.95
2019-01-31T08:29:11.632Z,-0.93
2019-01-31T08:31:41.501Z,-0.85
2019-01-31T08:34:11.349Z,-1.00
2019-01-31T08:36:41.186Z,-1.04
2019-01-31T08:39:10.980Z,-1.22
2019-01-31T08:41:40.752Z,-1.27
2019-01-31T08:44:10.718Z,-1.27
2019-01-31T08:46:40.566Z,-1.57
2019-01-31T08:49:10.318Z,-1.57
2019-01-31T08:51:40.108Z,-1.59
2019-01-31T08:54:09.906Z,-1.26
2019-01-31T08:56:39.696Z,-1.16
2019-01-31T08:59:09.584Z,-1.09
2019-01-31T09:01:39.397Z,-1.11
2019-01-31T09:04:09.226Z,-1.02
2019-01-31T09:06:39.030Z,-0.89
2019-01-31T09:09:10.329Z,-0.66
2019-01-31T09:11:40.142Z,-0.50
2019-01-31T09:14:09.962Z,-0.38
2019-01-31T09:16:39.815Z,-0.29
2019-01-31T09:19:09.596Z,-0.14
2019-01-31T09:21:40.507Z,-0.11
2019-01-31T09:24:15.850Z,-0.15
2019-01-31T09:27:22.004Z,-0.08
2019-01-31T09:30:16.000Z,-0.02
2019-01-31T09:32:54.967Z,-0.02
2019-01-31T09:35:33.753Z,0.11
2019-01-31T09:38:28.133Z,0.16
2019-01-31T09:41:08.513Z,0.16
2019-01-31T09:43:44.104Z,-0.19
2019-01-31T09:46:33.645Z,-0.13
2019-01-31T09:49:26.842Z,-0.19
2019-01-31T09:52:09.322Z,-0.24
2019-01-31T09:54:42.227Z,-0.18
2019-01-31T09:57:31.226Z,0.01
2019-01-31T10:00:13.755Z,0.01
2019-01-31T10:03:06.153Z,0.30
2019-01-31T10:06:05.501Z,0.41
2019-01-31T10:08:46.806Z,0.41
2019-01-31T10:11:42.342Z,0.47
2019-01-31T10:14:24.329Z,0.46
2019-01-31T10:16:59.892Z,0.56
2019-01-31T10:19:56.662Z,0.71
2019-01-31T10:22:43.111Z,0.71
2019-01-31T10:25:16.634Z,0.68
2019-01-31T10:28:04.564Z,1.31
2019-01-31T10:30:55.514Z,1.01
2019-01-31T10:33:44.698Z,1.26
2019-01-31T10:36:34.229Z,1.58
2019-01-31T10:39:18.913Z,1.76
2019-01-31T10:42:15.928Z,1.79
2019-01-31T10:44:48.765Z,1.85
2019-01-31T10:47:24.749Z,1.82
2019-01-31T10:50:00.599Z,1.90
2019-01-31T10:52:36.334Z,1.94
2019-01-31T10:55:24.346Z,2.03
2019-01-31T10:58:02.999Z,2.03
2019-01-31T11:00:35.967Z,2.09
2019-01-31T11:03:28.442Z,2.09
2019-01-31T11:06:10.384Z,2.07
2019-01-31T11:08:55.236Z,2.18
2019-01-31T11:11:31.112Z,2.20
2019-01-31T11:14:23.363Z,2.30
2019-01-31T11:17:15.751Z,2.28
2019-01-31T11:19:51.469Z,2.33
2019-01-31T11:22:27.085Z,2.33
2019-01-31T11:25:27.475Z,2.32
2019-01-31T11:28:28.967Z,2.32
2019-01-31T11:31:10.894Z,2.43
2019-01-31T11:34:00.201Z,2.56
2019-01-31T11:36:47.670Z,2.51
2019-01-31T11:39:32.363Z,2.39
2019-01-31T11:42:21.686Z,2.48
2019-01-31T11:45:11.125Z,2.43
2019-01-31T11:47:56.085Z,2.29
2019-01-31T11:50:50.172Z,2.32
2019-01-31T11:53:41.081Z,2.30
2019-01-31T11:56:31.782Z,2.27
2019-01-31T11:59:04.043Z,2.18
2019-01-31T12:01:33.766Z,2.20
2019-01-31T12:04:05.959Z,2.18
2019-01-31T12:06:35.783Z,2.18
2019-01-31T12:09:10.580Z,2.22
2019-01-31T12:11:40.346Z,2.22
2019-01-31T12:14:10.171Z,2.22
2019-01-31T12:16:39.941Z,2.39
2019-01-31T12:19:09.764Z,2.47
2019-01-31T12:21:39.626Z,2.58
2019-01-31T12:24:16.053Z,2.60
2019-01-31T12:26:41.036Z,2.67
2019-01-31T12:29:10.821Z,2.55
2019-01-31T12:31:40.597Z,2.49
2019-01-31T12:34:10.437Z,2.49
2019-01-31T12:36:40.238Z,2.30
2019-01-31T12:39:10.480Z,2.32
2019-01-31T12:41:40.323Z,2.48
2019-01-31T12:44:10.199Z,2.56
2019-01-31T12:46:40.043Z,2.67
2019-01-31T12:49:09.826Z,2.97
2019-01-31T12:51:39.587Z,2.94
2019-01-31T12:54:09.399Z,2.81
2019-01-31T12:56:39.147Z,2.85
2019-01-31T12:59:08.987Z,2.74
2019-01-31T13:01:38.706Z,2.81
2019-01-31T13:04:08.474Z,2.85
2019-01-31T13:06:38.360Z,2.80
2019-01-31T13:09:09.395Z,2.72
2019-01-31T13:11:39.570Z,2.69
2019-01-31T13:14:09.434Z,2.84
2019-01-31T13:16:39.193Z,2.70
2019-01-31T13:19:08.984Z,2.58
2019-01-31T13:21:38.783Z,2.51
2019-01-31T13:24:08.598Z,2.54
2019-01-31T13:26:38.368Z,2.45
2019-01-31T13:29:08.142Z,2.36
2019-01-31T13:31:37.927Z,2.25
2019-01-31T13:34:07.747Z,2.23
2019-01-31T13:36:37.601Z,2.22
2019-01-31T13:39:09.627Z,2.14
2019-01-31T13:41:41.821Z,2.02
2019-01-31T13:44:10.899Z,2.08
2019-01-31T13:46:40.807Z,2.13
2019-01-31T13:49:10.728Z,2.12
2019-01-31T13:51:40.520Z,2.13
2019-01-31T13:54:10.348Z,2.13
2019-01-31T13:56:45.743Z,2.05
2019-01-31T13:59:11.662Z,1.94
2019-01-31T14:01:41.449Z,1.97
2019-01-31T14:04:11.259Z,1.94
2019-01-31T14:06:41.013Z,1.93
2019-01-31T14:09:10.809Z,1.92
2019-01-31T14:11:40.630Z,1.97
2019-01-31T14:14:10.426Z,2.01
2019-01-31T14:16:47.264Z,1.95
2019-01-31T14:19:11.734Z,2.00
2019-01-31T14:21:44.091Z,1.97
2019-01-31T14:24:13.025Z,1.95
2019-01-31T14:26:42.841Z,1.81
2019-01-31T14:29:12.613Z,1.84
2019-01-31T14:31:42.408Z,1.78
2019-01-31T14:34:12.323Z,1.95
2019-01-31T14:36:42.089Z,2.59
2019-01-31T14:39:12.002Z,2.06
2019-01-31T14:41:41.814Z,2.06
2019-01-31T14:44:20.215Z,1.80
2019-01-31T14:46:43.141Z,1.80
2019-01-31T14:49:12.946Z,1.70
2019-01-31T14:51:42.698Z,1.65
2019-01-31T14:54:12.540Z,1.54
2019-01-31T14:56:42.685Z,1.49
2019-01-31T14:59:12.488Z,1.32
2019-01-31T15:01:42.326Z,1.30
2019-01-31T15:04:12.226Z,1.33
2019-01-31T15:06:42.022Z,1.30
2019-01-31T15:09:11.773Z,1.28
2019-01-31T15:11:41.584Z,1.31
2019-01-31T15:14:11.330Z,1.38
2019-01-31T15:16:41.103Z,1.39
2019-01-31T15:19:10.957Z,1.41
2019-01-31T15:21:40.699Z,1.33
2019-01-31T15:24:10.553Z,1.29
2019-01-31T15:26:40.412Z,1.29
2019-01-31T15:29:10.180Z,1.25
2019-01-31T15:31:39.933Z,1.29
2019-01-31T15:34:09.699Z,1.25
2019-01-31T15:36:39.568Z,1.21
2019-01-31T15:39:09.428Z,1.15
2019-01-31T15:41:39.263Z,1.12
2019-01-31T15:44:09.128Z,1.07
2019-01-31T15:46:39.032Z,1.02
2019-01-31T15:49:08.865Z,1.04
2019-01-31T15:51:38.806Z,1.05
2019-01-31T15:54:08.923Z,1.03
2019-01-31T15:56:38.858Z,1.00
2019-01-31T15:59:09.393Z,1.03
2019-01-31T16:01:39.193Z,1.08
2019-01-31T16:04:09.042Z,1.42
2019-01-31T16:06:38.917Z,1.21
2019-01-31T16:09:09.459Z,1.18
2019-01-31T16:11:39.232Z,1.01
2019-01-31T16:14:09.190Z,1.03
2019-01-31T16:16:39.042Z,0.94
2019-01-31T16:19:08.826Z,0.94
2019-01-31T16:21:38.648Z,0.89
2019-01-31T16:24:08.522Z,0.89
2019-01-31T16:26:38.383Z,0.88
2019-01-31T16:29:08.206Z,0.85
2019-01-31T16:31:38.239Z,0.85
2019-01-31T16:34:08.204Z,0.81
2019-01-31T16:36:38.014Z,0.76
2019-01-31T16:39:08.808Z,0.76
2019-01-31T16:41:38.644Z,0.81
2019-01-31T16:44:09.068Z,0.81
2019-01-31T16:46:38.885Z,0.78
2019-01-31T16:49:08.628Z,0.78
2019-01-31T16:51:38.434Z,0.78
2019-01-31T16:54:08.365Z,0.77
2019-01-31T16:56:38.280Z,0.78
2019-01-31T16:59:08.224Z,0.82
2019-01-31T17:01:38.012Z,0.83
2019-01-31T17:04:07.867Z,0.81
2019-01-31T17:06:37.709Z,0.81
2019-01-31T17:09:08.809Z,0.84
2019-01-31T17:11:38.632Z,0.85
2019-01-31T17:14:08.413Z,0.84
2019-01-31T17:16:38.253Z,0.82
2019-01-31T17:19:08.033Z,0.83
2019-01-31T17:21:38.013Z,0.86
2019-01-31T17:24:08.573Z,1.45
2019-01-31T17:26:38.351Z,1.33
2019-01-31T17:29:08.159Z,1.24
2019-01-31T17:31:37.977Z,1.07
2019-01-31T17:34:07.952Z,0.90
2019-01-31T17:36:37.833Z,0.84
2019-01-31T17:39:08.709Z,0.83
2019-01-31T17:41:38.623Z,0.70
2019-01-31T17:44:08.460Z,0.64
2019-01-31T17:46:38.461Z,0.67
2019-01-31T17:49:08.326Z,0.69
2019-01-31T17:51:38.188Z,0.74
2019-01-31T17:54:07.984Z,0.77
2019-01-31T17:56:37.834Z,0.71
2019-01-31T17:59:07.695Z,0.71
2019-01-31T18:01:37.687Z,0.76
2019-01-31T18:04:07.618Z,0.77
2019-01-31T18:06:37.528Z,0.70
2019-01-31T18:09:09.126Z,0.60
2019-01-31T18:11:38.948Z,0.52
2019-01-31T18:14:08.896Z,0.52
2019-01-31T18:16:38.671Z,0.48
2019-01-31T18:19:08.485Z,0.43
2019-01-31T18:21:38.286Z,0.43
2019-01-31T18:24:08.194Z,0.42
2019-01-31T18:26:38.024Z,0.37
2019-01-31T18:29:07.745Z,0.36
2019-01-31T18:31:37.604Z,0.36
2019-01-31T18:34:07.402Z,0.37
2019-01-31T18:36:37.239Z,0.36
2019-01-31T18:39:08.666Z,0.39
2019-01-31T18:41:38.466Z,0.40
2019-01-31T18:44:11.138Z,0.41
2019-01-31T18:46:41.253Z,0.41
2019-01-31T18:49:11.124Z,0.39
2019-01-31T18:51:41.039Z,0.40
2019-01-31T18:54:12.460Z,0.43
2019-01-31T18:56:42.371Z,0.41
2019-01-31T18:59:12.241Z,0.41
2019-01-31T19:01:42.193Z,0.48
2019-01-31T19:04:12.004Z,0.44
2019-01-31T19:06:41.833Z,0.45
2019-01-31T19:09:11.717Z,0.43
2019-01-31T19:11:41.558Z,0.43
2019-01-31T19:14:14.289Z,0.40
2019-01-31T19:16:42.887Z,0.47
2019-01-31T19:19:12.858Z,0.34
2019-01-31T19:21:42.693Z,0.34
2019-01-31T19:24:12.639Z,0.31
2019-01-31T19:26:42.523Z,0.26
2019-01-31T19:29:12.391Z,0.28
2019-01-31T19:31:42.329Z,0.31
2019-01-31T19:34:12.245Z,0.34
2019-01-31T19:36:42.072Z,0.33
2019-01-31T19:39:13.492Z,0.39
2019-01-31T19:41:43.423Z,0.31
2019-01-31T19:44:13.245Z,0.31
2019-01-31T19:46:43.083Z,0.36
2019-01-31T19:49:12.945Z,0.30
2019-01-31T19:51:43.534Z,0.30
2019-01-31T19:54:13.411Z,0.30
2019-01-31T19:56:43.233Z,0.31
2019-01-31T19:59:13.117Z,0.32
2019-01-31T20:01:43.091Z,0.27
2019-01-31T20:04:13.073Z,0.32
2019-01-31T20:06:42.891Z,1.23
2019-01-31T20:09:14.248Z,0.76
2019-01-31T20:11:44.090Z,0.62
2019-01-31T20:14:13.918Z,0.46
2019-01-31T20:16:43.752Z,0.34
2019-01-31T20:19:13.562Z,0.24
2019-01-31T20:21:43.421Z,0.21
2019-01-31T20:24:13.174Z,0.21
2019-01-31T20:26:42.994Z,0.23
2019-01-31T20:29:12.954Z,0.23
2019-01-31T20:31:42.722Z,0.23
2019-01-31T20:34:12.518Z,0.25
2019-01-31T20:36:42.321Z,0.26
2019-01-31T20:39:12.152Z,0.27
2019-01-31T20:41:53.477Z,0.25
2019-01-31T20:44:13.521Z,0.17
2019-01-31T20:46:43.353Z,0.18
2019-01-31T20:49:13.173Z,0.13
2019-01-31T20:51:43.133Z,0.13
2019-01-31T20:54:12.890Z,0.11
2019-01-31T20:56:42.614Z,0.04
2019-01-31T20:59:12.482Z,0.08
2019-01-31T21:01:42.327Z,0.08
2019-01-31T21:04:12.192Z,0.07
2019-01-31T21:06:42.072Z,0.14
2019-01-31T21:09:11.965Z,0.17
2019-01-31T21:11:41.740Z,0.18
2019-01-31T21:14:11.714Z,0.22
2019-01-31T21:16:51.282Z,0.23
2019-01-31T21:19:13.202Z,0.25
2019-01-31T21:21:43.004Z,0.25
2019-01-31T21:24:12.798Z,0.27
2019-01-31T21:26:42.618Z,0.28
2019-01-31T21:29:12.624Z,0.33
2019-01-31T21:31:42.448Z,0.33
2019-01-31T21:34:12.239Z,0.33
2019-01-31T21:36:42.058Z,0.32
2019-01-31T21:39:11.984Z,0.34
2019-01-31T21:41:41.802Z,0.33
2019-01-31T21:44:11.593Z,0.34
2019-01-31T21:46:41.400Z,0.34
2019-01-31T21:49:11.201Z,0.36
2019-01-31T21:51:41.043Z,0.35
2019-01-31T21:54:11.015Z,0.35
2019-01-31T21:56:40.789Z,0.36
2019-01-31T21:59:10.548Z,0.36
2019-01-31T22:01:40.333Z,0.32
2019-01-31T22:04:10.293Z,0.33
2019-01-31T22:06:40.086Z,0.32
2019-01-31T22:09:09.887Z,0.32
2019-01-31T22:11:39.640Z,0.31
2019-01-31T22:14:10.389Z,0.29
2019-01-31T22:16:40.162Z,0.27
2019-01-31T22:19:09.996Z,0.25
2019-01-31T22:21:39.772Z,0.24
2019-01-31T22:24:09.524Z,0.24
2019-01-31T22:26:39.332Z,0.23
2019-01-31T22:29:09.147Z,0.23
2019-01-31T22:31:39.001Z,0.19
2019-01-31T22:34:08.811Z,0.17
2019-01-31T22:36:38.569Z,0.14
2019-01-31T22:39:08.805Z,0.17
2019-01-31T22:41:38.572Z,0.17
2019-01-31T22:44:08.383Z,0.02
2019-01-31T22:46:38.202Z,0.09
2019-01-31T22:49:07.981Z,-0.14
2019-01-31T22:51:37.792Z,-0.14
2019-01-31T22:54:07.727Z,0.11
2019-01-31T22:56:37.492Z,0.11
2019-01-31T22:59:07.269Z,-0.07
2019-01-31T23:01:38.544Z,-0.18
2019-01-31T23:04:08.289Z,-0.31
2019-01-31T23:06:38.110Z,-0.28
2019-01-31T23:09:08.705Z,-0.28
2019-01-31T23:11:38.532Z,-0.34
2019-01-31T23:14:08.282Z,-0.31
2019-01-31T23:16:38.094Z,-0.23
2019-01-31T23:19:08.946Z,-0.18
2019-01-31T23:21:38.692Z,-0.08
2019-01-31T23:24:08.506Z,-0.07
2019-01-31T23:26:38.326Z,-0.16
2019-01-31T23:29:08.084Z,-0.07
2019-01-31T23:31:37.892Z,-0.08
2019-01-31T23:34:07.721Z,-0.08
2019-01-31T23:36:37.583Z,-0.01
2019-01-31T23:39:08.900Z,0.06
2019-01-31T23:41:38.701Z,0.06
2019-01-31T23:44:08.491Z,0.12
2019-01-31T23:46:38.293Z,0.13
2019-01-31T23:49:08.161Z,0.13
2019-01-31T23:51:37.925Z,0.16
2019-01-31T23:54:07.732Z,0.16
2019-01-31T23:56:37.516Z,0.10
2019-01-31T23:59:07.313Z,0.10
